createdAt,value
2023-08-04T00:00:32.945Z,99732.81
2023-08-04T00:03:19.952Z,99729.13
2023-08-04T00:05:47.309Z,99734.63
2023-08-04T00:08:14.155Z,99745.66
2023-08-04T00:10:41.292Z,99731.66
2023-08-04T00:13:08.150Z,99725.31
2023-08-04T00:15:35.274Z,99714.34
2023-08-04T00:18:04.521Z,99701.28
2023-08-04T00:20:31.696Z,99703.50
2023-08-04T00:22:58.541Z,99708.00
2023-08-04T00:25:25.677Z,99729.44
2023-08-04T00:27:52.500Z,99806.00
2023-08-04T00:30:19.613Z,99882.66
2023-08-04T00:32:48.380Z,99882.94
2023-08-04T00:35:15.583Z,99822.25
2023-08-04T00:37:42.521Z,99844.84
2023-08-04T00:40:10.085Z,99877.00
2023-08-04T00:42:37.980Z,99835.00
2023-08-04T00:45:06.887Z,99827.66
2023-08-04T00:47:36.683Z,99806.31
2023-08-04T00:50:05.675Z,99822.94
2023-08-04T00:52:33.059Z,99825.00
2023-08-04T00:55:00.195Z,99812.50
2023-08-04T00:57:27.171Z,99801.97
2023-08-04T00:59:56.972Z,99799.31
2023-08-04T01:02:24.430Z,99789.63
2023-08-04T01:04:51.726Z,99782.31
2023-08-04T01:07:24.113Z,99764.78
2023-08-04T01:10:04.357Z,99743.50
2023-08-04T01:12:46.288Z,99736.88
2023-08-04T01:15:15.141Z,99766.38
2023-08-04T01:17:42.050Z,99792.84
2023-08-04T01:20:09.846Z,99794.44
2023-08-04T01:22:36.790Z,99801.13
2023-08-04T01:25:04.625Z,99773.94
2023-08-04T01:27:34.581Z,99788.47
2023-08-04T01:30:03.579Z,99808.13
2023-08-04T01:32:31.147Z,99797.94
2023-08-04T01:34:58.513Z,99772.81
2023-08-04T01:37:25.513Z,99772.00
2023-08-04T01:39:52.765Z,99791.34
2023-08-04T01:42:19.670Z,99809.84
2023-08-04T01:44:46.825Z,99816.63
2023-08-04T01:47:13.696Z,99819.69
2023-08-04T01:49:40.833Z,99840.34
2023-08-04T01:52:08.129Z,99847.13
2023-08-04T01:54:35.364Z,99839.19
2023-08-04T01:57:02.223Z,99813.53
2023-08-04T01:59:29.340Z,99807.50
2023-08-04T02:01:56.203Z,99802.78
2023-08-04T02:04:23.401Z,99788.88
2023-08-04T02:06:50.269Z,99797.34
2023-08-04T02:09:17.381Z,99793.47
2023-08-04T02:11:44.290Z,99797.00
2023-08-04T02:14:11.557Z,99778.41
2023-08-04T02:16:38.438Z,99776.06
2023-08-04T02:19:10.361Z,99758.25
2023-08-04T02:21:37.980Z,99752.84
2023-08-04T02:24:05.379Z,99751.16
2023-08-04T02:26:32.848Z,99758.72
2023-08-04T02:29:00.088Z,99771.31
2023-08-04T02:31:29.607Z,99774.34
2023-08-04T02:33:56.902Z,99773.91
2023-08-04T02:36:24.606Z,99772.84
2023-08-04T02:38:52.343Z,99763.59
2023-08-04T02:41:19.186Z,99775.94
2023-08-04T02:43:46.300Z,99784.50
2023-08-04T02:46:13.441Z,99782.06
2023-08-04T02:48:41.260Z,99778.09
2023-08-04T02:51:11.039Z,99772.44
2023-08-04T02:53:41.337Z,99770.31
2023-08-04T02:56:13.475Z,99761.66
2023-08-04T02:58:42.480Z,99763.31
2023-08-04T03:01:09.485Z,99761.25
2023-08-04T03:03:36.830Z,99775.75
2023-08-04T03:06:03.880Z,99826.69
2023-08-04T03:08:34.813Z,99860.72
2023-08-04T03:11:01.918Z,99866.63
2023-08-04T03:13:29.145Z,99874.75
2023-08-04T03:16:01.180Z,99863.09
2023-08-04T03:18:29.017Z,99850.94
2023-08-04T03:20:56.240Z,99845.88
2023-08-04T03:23:23.490Z,99839.03
2023-08-04T03:25:51.045Z,99828.72
2023-08-04T03:28:18.354Z,99824.56
2023-08-04T03:30:45.378Z,99824.84
2023-08-04T03:33:12.518Z,99811.06
2023-08-04T03:35:39.430Z,99815.28
2023-08-04T03:38:07.284Z,99816.88
2023-08-04T03:40:34.140Z,99814.78
2023-08-04T03:43:01.266Z,99810.13
2023-08-04T03:45:28.179Z,99816.25
2023-08-04T03:47:55.334Z,99813.84
2023-08-04T03:50:24.132Z,99825.75
2023-08-04T03:52:51.252Z,99813.56
2023-08-04T03:55:18.558Z,99817.06
2023-08-04T03:57:45.697Z,99812.84
2023-08-04T04:00:12.603Z,99822.41
2023-08-04T04:02:40.244Z,99818.44
2023-08-04T04:05:07.448Z,99830.78
2023-08-04T04:07:34.615Z,99856.59
2023-08-04T04:10:01.520Z,99871.00
2023-08-04T04:12:28.716Z,99866.66
2023-08-04T04:14:55.545Z,99851.19
2023-08-04T04:17:23.288Z,99887.94
2023-08-04T04:19:50.104Z,99886.38
2023-08-04T04:22:17.196Z,99855.63
2023-08-04T04:24:44.092Z,99855.31
2023-08-04T04:27:13.077Z,99872.31
2023-08-04T04:29:40.092Z,99893.19
2023-08-04T04:32:08.297Z,99907.06
2023-08-04T04:34:35.179Z,99895.28
2023-08-04T04:37:02.299Z,99868.47
2023-08-04T04:39:29.255Z,99853.22
2023-08-04T04:41:56.402Z,99841.56
2023-08-04T04:44:23.507Z,99819.06
2023-08-04T04:46:51.062Z,99820.03
2023-08-04T04:49:18.197Z,99820.41
2023-08-04T04:51:45.884Z,99819.13
2023-08-04T04:54:13.280Z,99813.63
2023-08-04T04:56:40.554Z,99812.88
2023-08-04T04:59:07.450Z,99819.13
2023-08-04T05:01:34.740Z,99814.63
2023-08-04T05:04:01.786Z,99805.03
2023-08-04T05:06:30.893Z,99799.91
2023-08-04T05:08:58.091Z,99802.50
2023-08-04T05:11:25.446Z,99799.75
2023-08-04T05:13:52.350Z,99800.28
2023-08-04T05:16:19.596Z,99801.94
2023-08-04T05:18:46.443Z,99798.66
2023-08-04T05:21:13.595Z,99807.22
2023-08-04T05:23:40.490Z,99810.41
2023-08-04T05:26:07.552Z,99811.41
2023-08-04T05:28:34.443Z,99810.09
2023-08-04T05:31:03.720Z,99809.19
2023-08-04T05:33:32.241Z,99804.75
2023-08-04T05:36:00.091Z,99810.63
2023-08-04T05:38:27.237Z,99807.34
2023-08-04T05:40:56.044Z,99806.94
2023-08-04T05:43:24.621Z,99800.16
2023-08-04T05:45:51.784Z,99791.16
2023-08-04T05:48:18.926Z,99794.72
2023-08-04T05:50:46.267Z,99792.34
2023-08-04T05:53:13.838Z,99787.34
2023-08-04T05:55:41.274Z,99797.25
2023-08-04T05:58:08.264Z,99799.97
2023-08-04T06:00:36.750Z,99798.78
2023-08-04T06:03:05.413Z,99802.72
2023-08-04T06:05:32.802Z,99805.97
2023-08-04T06:07:59.617Z,99796.16
2023-08-04T06:10:26.925Z,99789.84
2023-08-04T06:12:53.803Z,99788.13
2023-08-04T06:15:21.067Z,99794.63
2023-08-04T06:17:48.503Z,99777.97
2023-08-04T06:20:15.732Z,99778.31
2023-08-04T06:22:42.799Z,99784.84
2023-08-04T06:25:10.105Z,99795.75
2023-08-04T06:27:37.057Z,99796.31
2023-08-04T06:30:04.622Z,99791.44
2023-08-04T06:32:31.491Z,99788.59
2023-08-04T06:34:58.620Z,99796.97
2023-08-04T06:37:25.946Z,99803.31
2023-08-04T06:39:53.656Z,99797.00
2023-08-04T06:42:21.048Z,99793.19
2023-08-04T06:44:48.347Z,99803.38
2023-08-04T06:47:15.532Z,99804.56
2023-08-04T06:49:44.003Z,99806.78
2023-08-04T06:52:11.414Z,99803.31
2023-08-04T06:54:38.980Z,99796.66
2023-08-04T06:57:06.497Z,99792.81
2023-08-04T06:59:34.447Z,99798.84
2023-08-04T07:02:01.411Z,99807.03
2023-08-04T07:04:28.837Z,99812.41
2023-08-04T07:06:57.524Z,99821.44
2023-08-04T07:09:26.597Z,99821.78
2023-08-04T07:11:54.216Z,99817.94
2023-08-04T07:14:21.383Z,99811.56
2023-08-04T07:16:48.446Z,99824.81
2023-08-04T07:19:16.522Z,99820.28
2023-08-04T07:21:45.023Z,99818.06
2023-08-04T07:24:12.628Z,99825.75
2023-08-04T07:26:39.669Z,99828.06
2023-08-04T07:29:06.877Z,99822.81
2023-08-04T07:31:33.999Z,99818.94
2023-08-04T07:34:01.632Z,99833.19
2023-08-04T07:36:28.736Z,99831.09
2023-08-04T07:38:56.846Z,99831.75
2023-08-04T07:41:28.086Z,99822.03
2023-08-04T07:43:55.305Z,99815.22
2023-08-04T07:46:28.875Z,99825.63
2023-08-04T07:48:56.413Z,99832.34
2023-08-04T07:51:23.845Z,99842.25
2023-08-04T07:53:51.582Z,99843.44
2023-08-04T07:56:19.051Z,99842.06
2023-08-04T07:58:48.533Z,99856.66
2023-08-04T08:01:16.282Z,99850.31
2023-08-04T08:03:44.228Z,99843.28
2023-08-04T08:06:11.585Z,99853.78
2023-08-04T08:08:38.814Z,99843.00
2023-08-04T08:11:10.397Z,99838.22
2023-08-04T08:13:38.847Z,99836.53
2023-08-04T08:16:16.404Z,99836.13
2023-08-04T08:18:45.765Z,99828.22
2023-08-04T08:21:12.596Z,99830.72
2023-08-04T08:23:39.760Z,99836.47
2023-08-04T08:26:06.682Z,99829.34
2023-08-04T08:28:34.013Z,99833.63
2023-08-04T08:31:00.953Z,99825.97
2023-08-04T08:33:28.158Z,99834.72
2023-08-04T08:35:56.438Z,99827.69
2023-08-04T08:38:23.815Z,99836.41
2023-08-04T08:40:50.823Z,99833.81
2023-08-04T08:43:18.089Z,99828.34
2023-08-04T08:45:45.979Z,99826.38
2023-08-04T08:48:13.690Z,99818.03
2023-08-04T08:50:42.857Z,99817.28
2023-08-04T08:53:13.645Z,99829.63
2023-08-04T08:55:41.679Z,99821.28
2023-08-04T08:58:09.959Z,99813.81
2023-08-04T09:00:37.247Z,99817.66
2023-08-04T09:03:05.822Z,99817.72
2023-08-04T09:05:33.784Z,99822.78
2023-08-04T09:08:01.230Z,99819.28
2023-08-04T09:10:28.220Z,99827.06
2023-08-04T09:12:57.940Z,99832.63
2023-08-04T09:15:35.657Z,99837.38
2023-08-04T09:18:08.129Z,99837.72
2023-08-04T09:20:35.186Z,99842.75
2023-08-04T09:23:02.371Z,99837.16
2023-08-04T09:25:29.207Z,99838.75
2023-08-04T09:27:57.451Z,99834.31
2023-08-04T09:30:26.067Z,99834.66
2023-08-04T09:32:53.340Z,99828.06
2023-08-04T09:35:20.316Z,99821.53
2023-08-04T09:37:47.825Z,99815.50
2023-08-04T09:40:17.962Z,99823.81
2023-08-04T09:42:46.939Z,99826.28
2023-08-04T09:45:20.150Z,99821.03
2023-08-04T09:47:52.399Z,99820.00
2023-08-04T09:50:20.495Z,99822.66
2023-08-04T09:52:47.946Z,99824.22
2023-08-04T09:55:15.018Z,99809.91
2023-08-04T09:57:43.466Z,99809.91
2023-08-04T10:00:13.383Z,99798.47
2023-08-04T10:02:41.987Z,99796.59
2023-08-04T10:05:11.045Z,99791.00
2023-08-04T10:07:39.174Z,99787.00
2023-08-04T10:10:08.882Z,99785.34
2023-08-04T10:12:36.482Z,99787.78
2023-08-04T10:15:03.830Z,99788.78
2023-08-04T10:17:31.056Z,99789.25
2023-08-04T10:20:04.605Z,99791.03
2023-08-04T10:22:33.631Z,99797.91
2023-08-04T10:25:00.762Z,99798.22
2023-08-04T10:27:28.631Z,99802.34
2023-08-04T10:30:14.799Z,99800.69
2023-08-04T10:32:42.567Z,99803.81
2023-08-04T10:35:20.787Z,99807.06
2023-08-04T10:38:00.130Z,99800.88
2023-08-04T10:40:34.540Z,99800.28
2023-08-04T10:43:05.468Z,99802.72
2023-08-04T10:45:51.617Z,99796.28
2023-08-04T10:48:20.099Z,99796.69
2023-08-04T10:50:47.319Z,99793.22
2023-08-04T10:53:15.655Z,99798.16
2023-08-04T10:55:56.159Z,99784.00
2023-08-04T10:58:25.746Z,99802.38
2023-08-04T11:00:54.356Z,99794.50
2023-08-04T11:03:25.325Z,99790.06
2023-08-04T11:05:53.658Z,99785.94
2023-08-04T11:08:22.447Z,99792.06
2023-08-04T11:10:59.598Z,99794.56
2023-08-04T11:13:26.868Z,99803.53
2023-08-04T11:15:54.892Z,99790.69
2023-08-04T11:18:27.372Z,99797.91
2023-08-04T11:20:54.946Z,99799.09
2023-08-04T11:23:27.696Z,99797.19
2023-08-04T11:25:55.963Z,99791.69
2023-08-04T11:28:25.879Z,99789.91
2023-08-04T11:31:03.067Z,99793.97
2023-08-04T11:33:30.643Z,99796.69
2023-08-04T11:35:57.528Z,99796.13
2023-08-04T11:38:25.111Z,99790.47
2023-08-04T11:41:00.716Z,99787.44
2023-08-04T11:43:30.493Z,99789.84
2023-08-04T11:46:01.816Z,99787.31
2023-08-04T11:48:29.615Z,99788.09
2023-08-04T11:50:58.373Z,99790.31
2023-08-04T11:53:26.287Z,99795.44
2023-08-04T11:56:01.282Z,99793.25
2023-08-04T11:58:36.644Z,99788.06
2023-08-04T12:01:07.976Z,99781.38
2023-08-04T12:03:49.708Z,99778.78
2023-08-04T12:06:19.404Z,99781.22
2023-08-04T12:08:51.620Z,99778.88
2023-08-04T12:11:23.913Z,99778.38
2023-08-04T12:13:51.520Z,99779.69
2023-08-04T12:16:22.638Z,99783.31
2023-08-04T12:18:50.675Z,99782.13
2023-08-04T12:21:18.874Z,99779.81
2023-08-04T12:23:50.606Z,99773.50
2023-08-04T12:26:17.932Z,99769.97
2023-08-04T12:28:45.076Z,99772.38
2023-08-04T12:31:16.099Z,99777.34
2023-08-04T12:33:44.499Z,99768.44
2023-08-04T12:36:11.510Z,99773.44
2023-08-04T12:38:38.666Z,99774.97
2023-08-04T12:41:05.687Z,99769.47
2023-08-04T12:43:32.852Z,99765.84
2023-08-04T12:45:59.719Z,99762.13
2023-08-04T12:48:26.993Z,99765.47
2023-08-04T12:50:54.010Z,99778.19
2023-08-04T12:53:21.186Z,99765.56
2023-08-04T12:55:48.983Z,99763.94
2023-08-04T12:58:16.185Z,99755.53
2023-08-04T13:00:43.041Z,99753.81
2023-08-04T13:03:10.263Z,99753.66
2023-08-04T13:05:39.821Z,99751.44
2023-08-04T13:08:07.089Z,99754.25
2023-08-04T13:10:34.208Z,99747.75
2023-08-04T13:13:01.553Z,99742.56
2023-08-04T13:15:29.886Z,99747.31
2023-08-04T13:17:57.156Z,99748.19
2023-08-04T13:20:24.053Z,99743.38
2023-08-04T13:22:51.283Z,99745.97
2023-08-04T13:25:18.475Z,99747.28
2023-08-04T13:27:46.749Z,99745.59
2023-08-04T13:30:13.661Z,99755.47
2023-08-04T13:32:40.894Z,99761.06
2023-08-04T13:35:08.136Z,99761.75
2023-08-04T13:37:35.294Z,99755.38
2023-08-04T13:40:02.133Z,99748.03
2023-08-04T13:42:29.300Z,99755.69
2023-08-04T13:44:56.113Z,99756.00
2023-08-04T13:47:23.447Z,99746.75
2023-08-04T13:49:50.403Z,99738.84
2023-08-04T13:52:17.548Z,99737.00
2023-08-04T13:54:44.360Z,99738.34
2023-08-04T13:57:11.475Z,99748.50
2023-08-04T13:59:38.528Z,99739.84
2023-08-04T14:02:07.201Z,99740.75
2023-08-04T14:04:36.735Z,99731.38
2023-08-04T14:07:05.729Z,99731.09
2023-08-04T14:09:42.749Z,99727.41
2023-08-04T14:12:10.062Z,99724.31
2023-08-04T14:14:37.245Z,99723.19
2023-08-04T14:17:04.683Z,99722.94
2023-08-04T14:19:31.590Z,99721.53
2023-08-04T14:21:58.744Z,99721.38
2023-08-04T14:24:25.642Z,99711.88
2023-08-04T14:26:52.767Z,99711.47
2023-08-04T14:29:19.649Z,99709.47
2023-08-04T14:31:47.115Z,99711.09
2023-08-04T14:34:14.331Z,99705.94
2023-08-04T14:36:41.439Z,99702.41
2023-08-04T14:39:08.340Z,99701.19
2023-08-04T14:41:35.627Z,99697.09
2023-08-04T14:44:02.548Z,99696.25
2023-08-04T14:46:29.896Z,99698.06
2023-08-04T14:48:56.701Z,99697.94
2023-08-04T14:51:23.839Z,99692.41
2023-08-04T14:53:51.467Z,99692.72
2023-08-04T14:56:18.614Z,99692.47
2023-08-04T14:58:45.483Z,99697.97
2023-08-04T15:01:12.670Z,99699.25
2023-08-04T15:03:41.297Z,99693.25
2023-08-04T15:06:16.429Z,99690.41
2023-08-04T15:08:44.695Z,99689.84
2023-08-04T15:11:13.056Z,99692.03
2023-08-04T15:13:41.065Z,99692.19
2023-08-04T15:16:09.440Z,99690.31
2023-08-04T15:18:36.925Z,99694.69
2023-08-04T15:21:04.419Z,99682.78
2023-08-04T15:23:31.449Z,99679.97
2023-08-04T15:26:00.251Z,99679.28
2023-08-04T15:28:27.554Z,99678.28
2023-08-04T15:31:04.232Z,99672.81
2023-08-04T15:33:35.501Z,99674.03
2023-08-04T15:36:05.593Z,99682.75
2023-08-04T15:38:32.484Z,99680.59
2023-08-04T15:41:05.533Z,99695.47
2023-08-04T15:43:33.038Z,99696.19
2023-08-04T15:46:00.381Z,99707.72
2023-08-04T15:48:27.285Z,99708.75
2023-08-04T15:50:56.178Z,99700.47
2023-08-04T15:53:23.117Z,99699.44
2023-08-04T15:55:50.392Z,99704.28
2023-08-04T15:58:17.260Z,99704.25
2023-08-04T16:00:46.827Z,99701.47
2023-08-04T16:03:13.691Z,99699.69
2023-08-04T16:05:41.326Z,99704.78
2023-08-04T16:08:08.220Z,99706.03
2023-08-04T16:10:35.536Z,99703.72
2023-08-04T16:13:02.362Z,99706.66
2023-08-04T16:15:29.520Z,99712.13
2023-08-04T16:17:56.398Z,99690.03
2023-08-04T16:20:23.632Z,99693.03
2023-08-04T16:22:50.580Z,99693.31
2023-08-04T16:25:17.852Z,99695.09
2023-08-04T16:27:44.699Z,99700.69
2023-08-04T16:30:12.293Z,99688.88
2023-08-04T16:32:39.117Z,99688.66
2023-08-04T16:35:06.745Z,99682.88
2023-08-04T16:37:33.573Z,99685.75
2023-08-04T16:40:00.915Z,99683.28
2023-08-04T16:42:27.923Z,99683.28
2023-08-04T16:44:55.272Z,99683.47
2023-08-04T16:47:22.202Z,99674.50
2023-08-04T16:49:49.364Z,99672.31
2023-08-04T16:52:16.223Z,99672.34
2023-08-04T16:54:43.348Z,99678.31
2023-08-04T16:57:10.210Z,99683.50
2023-08-04T16:59:37.411Z,99678.97
2023-08-04T17:02:04.618Z,99672.78
2023-08-04T17:04:32.955Z,99664.09
2023-08-04T17:06:59.872Z,99661.09
2023-08-04T17:09:27.487Z,99673.75
2023-08-04T17:11:54.554Z,99680.97
2023-08-04T17:14:21.790Z,99684.13
2023-08-04T17:16:50.100Z,99681.75
2023-08-04T17:19:17.471Z,99683.53
2023-08-04T17:21:44.452Z,99675.50
2023-08-04T17:24:13.431Z,99680.31
2023-08-04T17:26:40.338Z,99686.91
2023-08-04T17:29:07.592Z,99688.09
2023-08-04T17:31:34.532Z,99681.78
2023-08-04T17:34:01.670Z,99678.28
2023-08-04T17:36:28.615Z,99683.91
2023-08-04T17:38:58.328Z,99686.34
2023-08-04T17:41:25.187Z,99686.06
2023-08-04T17:43:52.379Z,99687.47
2023-08-04T17:46:23.444Z,99697.78
2023-08-04T17:48:50.611Z,99700.78
2023-08-04T17:51:17.538Z,99705.97
2023-08-04T17:53:44.775Z,99708.28
2023-08-04T17:56:12.252Z,99701.59
2023-08-04T17:58:39.776Z,99699.91
2023-08-04T18:01:07.691Z,99700.03
2023-08-04T18:03:35.219Z,99706.47
2023-08-04T18:06:04.676Z,99714.69
2023-08-04T18:08:32.256Z,99715.47
2023-08-04T18:11:04.941Z,99709.25
2023-08-04T18:13:32.321Z,99709.81
2023-08-04T18:15:59.336Z,99709.53
2023-08-04T18:18:28.635Z,99720.72
2023-08-04T18:20:59.598Z,99721.53
2023-08-04T18:23:26.865Z,99719.69
2023-08-04T18:25:57.370Z,99737.91
2023-08-04T18:28:25.057Z,99730.94
2023-08-04T18:30:55.897Z,99736.31
2023-08-04T18:33:23.117Z,99741.06
2023-08-04T18:35:50.310Z,99736.91
2023-08-04T18:38:17.644Z,99738.16
2023-08-04T18:40:54.295Z,99739.84
2023-08-04T18:43:22.091Z,99731.22
2023-08-04T18:45:48.989Z,99732.16
2023-08-04T18:48:16.594Z,99714.81
2023-08-04T18:50:43.498Z,99711.78
2023-08-04T18:53:10.593Z,99698.94
2023-08-04T18:55:38.399Z,99713.81
2023-08-04T18:58:05.572Z,99713.72
2023-08-04T19:00:32.488Z,99716.38
2023-08-04T19:02:59.764Z,99721.69
2023-08-04T19:05:26.957Z,99726.50
2023-08-04T19:07:54.179Z,99724.00
2023-08-04T19:10:21.204Z,99735.34
2023-08-04T19:12:48.345Z,99730.91
2023-08-04T19:15:15.272Z,99731.19
2023-08-04T19:17:43.053Z,99731.19
2023-08-04T19:20:10.704Z,99736.66
2023-08-04T19:22:37.907Z,99732.94
2023-08-04T19:25:05.203Z,99739.16
2023-08-04T19:27:32.404Z,99732.22
2023-08-04T19:29:59.274Z,99728.69
2023-08-04T19:32:26.515Z,99723.94
2023-08-04T19:34:53.369Z,99718.00
2023-08-04T19:37:20.466Z,99719.94
2023-08-04T19:39:47.302Z,99720.41
2023-08-04T19:42:14.442Z,99719.09
2023-08-04T19:44:41.298Z,99711.78
2023-08-04T19:47:12.074Z,99716.25
2023-08-04T19:49:38.919Z,99708.19
2023-08-04T19:52:06.504Z,99700.56
2023-08-04T19:54:33.471Z,99691.91
2023-08-04T19:57:00.756Z,99686.72
2023-08-04T19:59:27.608Z,99668.00
2023-08-04T20:01:55.082Z,99647.94
2023-08-04T20:04:22.009Z,99644.50
2023-08-04T20:06:49.668Z,99642.19
2023-08-04T20:09:16.672Z,99635.50
2023-08-04T20:11:43.801Z,99639.56
2023-08-04T20:14:10.746Z,99645.78
2023-08-04T20:16:37.866Z,99634.56
2023-08-04T20:19:04.799Z,99624.53
2023-08-04T20:21:32.008Z,99611.50
2023-08-04T20:23:59.042Z,99613.53
2023-08-04T20:26:26.261Z,99613.88
2023-08-04T20:28:56.375Z,99618.41
2023-08-04T20:31:23.614Z,99620.06
2023-08-04T20:33:55.621Z,99604.66
2023-08-04T20:36:25.826Z,99609.81
2023-08-04T20:38:52.729Z,99608.16
2023-08-04T20:41:20.195Z,99622.09
2023-08-04T20:43:47.752Z,99627.84
2023-08-04T20:46:19.550Z,99633.88
2023-08-04T20:48:46.848Z,99640.91
2023-08-04T20:51:15.225Z,99627.28
2023-08-04T20:53:42.257Z,99614.34
2023-08-04T20:56:09.426Z,99603.13
2023-08-04T20:58:39.049Z,99597.78
2023-08-04T21:01:08.884Z,99591.38
2023-08-04T21:03:36.487Z,99584.19
2023-08-04T21:06:07.274Z,99577.63
2023-08-04T21:08:34.692Z,99569.38
2023-08-04T21:11:02.412Z,99572.25
2023-08-04T21:13:29.349Z,99563.56
2023-08-04T21:15:56.596Z,99540.78
2023-08-04T21:18:23.657Z,99547.50
2023-08-04T21:20:50.948Z,99554.72
2023-08-04T21:23:20.854Z,99547.88
2023-08-04T21:25:48.609Z,99536.78
2023-08-04T21:28:15.560Z,99527.25
2023-08-04T21:30:44.599Z,99533.63
2023-08-04T21:33:12.823Z,99525.59
2023-08-04T21:35:40.075Z,99527.06
2023-08-04T21:38:07.129Z,99526.22
2023-08-04T21:40:34.497Z,99526.03
2023-08-04T21:43:01.318Z,99513.66
2023-08-04T21:45:28.719Z,99502.09
2023-08-04T21:47:56.024Z,99490.72
2023-08-04T21:50:23.739Z,99486.16
2023-08-04T21:52:50.671Z,99493.19
2023-08-04T21:55:19.276Z,99484.81
2023-08-04T21:57:47.288Z,99504.22
2023-08-04T22:00:17.889Z,99504.69
2023-08-04T22:02:45.896Z,99508.03
2023-08-04T22:05:14.410Z,99491.56
2023-08-04T22:07:41.326Z,99496.00
2023-08-04T22:10:09.095Z,99486.47
2023-08-04T22:12:36.217Z,99483.16
2023-08-04T22:15:04.701Z,99487.66
2023-08-04T22:17:32.187Z,99484.34
2023-08-04T22:19:59.375Z,99466.75
2023-08-04T22:22:26.341Z,99452.31
2023-08-04T22:24:53.437Z,99444.06
2023-08-04T22:27:20.247Z,99433.34
2023-08-04T22:29:47.327Z,99434.66
2023-08-04T22:32:14.305Z,99442.03
2023-08-04T22:34:41.465Z,99430.84
2023-08-04T22:37:08.320Z,99422.78
2023-08-04T22:39:35.425Z,99423.34
2023-08-04T22:42:02.340Z,99432.41
2023-08-04T22:44:29.501Z,99434.91
2023-08-04T22:46:56.559Z,99420.22
2023-08-04T22:49:23.719Z,99402.81
2023-08-04T22:51:50.555Z,99417.44
2023-08-04T22:54:31.708Z,99436.03
2023-08-04T22:57:00.134Z,99450.47
2023-08-04T22:59:27.787Z,99464.91
2023-08-04T23:01:54.773Z,99492.38
2023-08-04T23:04:21.952Z,99483.69
2023-08-04T23:06:49.112Z,99411.78
2023-08-04T23:09:17.014Z,99397.03
2023-08-04T23:11:43.949Z,99384.91
2023-08-04T23:14:11.061Z,99370.88
2023-08-04T23:16:37.924Z,99355.03
2023-08-04T23:19:05.080Z,99372.28
2023-08-04T23:21:31.946Z,99365.09
2023-08-04T23:23:59.082Z,99330.69
2023-08-04T23:26:25.948Z,99294.59
2023-08-04T23:28:53.105Z,99272.22
2023-08-04T23:31:20.094Z,99262.69
2023-08-04T23:33:47.277Z,99243.75
2023-08-04T23:36:14.165Z,99252.03
2023-08-04T23:38:41.345Z,99241.97
2023-08-04T23:41:08.191Z,99255.38
2023-08-04T23:43:35.263Z,99258.53
2023-08-04T23:46:02.125Z,99310.66
2023-08-04T23:48:29.320Z,99415.16
2023-08-04T23:50:56.136Z,99467.91
2023-08-04T23:53:23.374Z,99516.06
2023-08-04T23:55:50.272Z,99609.91
2023-08-04T23:58:22.365Z,99676.69
